Time;durP1;ratioP1;P1;durP2;ratioP2;P2;SDS_P1;SDS_P2;PMS_P1;PMS_P2;Temp;Humidity;BMP_temperature;BMP_pressure;BME280_temperature;BME280_humidity;BME280_pressure;Samples;Min_cycle;Max_cycle;Signal;HPM_P1;HPM_P2
2021/07/26 21:10:39;;;;;;;13.02;9.88;;;18.00;99.90;;;;;;5117755;23;20434;-96
2021/07/26 21:13:45;;;;;;;14.77;8.90;;;17.20;99.90;;;;;;4958349;28;20406;-96
2021/07/26 21:19:48;;;;;;;21.42;12.32;;;16.30;99.90;;;;;;4932565;29;20429;-95
2021/07/26 21:22:53;;;;;;;22.80;12.02;;;16.10;99.90;;;;;;4969218;23;20382;-96
2021/07/26 21:25:44;;;;;;;24.15;12.65;;;15.90;99.90;;;;;;5022867;23;20599;-96
2021/07/26 21:28:42;;;;;;;25.75;11.13;;;15.80;99.90;;;;;;4953032;29;20424;-96
2021/07/26 21:31:23;;;;;;;25.42;12.68;;;15.70;99.90;;;;;;4952552;29;20403;-96
2021/07/26 21:33:51;;;;;;;38.33;12.90;;;15.60;99.90;;;;;;4933845;29;20432;-96
2021/07/26 21:36:21;;;;;;;46.22;16.33;;;15.60;99.90;;;;;;4930950;29;20448;-96
2021/07/26 21:38:50;;;;;;;53.13;16.00;;;15.50;99.90;;;;;;4949503;29;20486;-96
2021/07/26 21:41:18;;;;;;;34.40;13.10;;;15.50;99.90;;;;;;4929274;29;20436;-96
2021/07/26 21:43:45;;;;;;;258.25;26.92;;;15.40;99.90;;;;;;4925673;29;20439;-95
2021/07/26 21:46:14;;;;;;;121.45;21.38;;;15.30;99.90;;;;;;4928518;29;20501;-96
2021/07/26 21:48:41;;;;;;;1786.95;100.35;;;15.30;99.90;;;;;;4929157;29;20498;-96
2021/07/26 21:51:10;;;;;;;1999.90;114.57;;;15.20;99.90;;;;;;4922892;29;20434;-96
2021/07/26 21:53:38;;;;;;;1999.90;118.93;;;15.10;99.90;;;;;;4922610;29;20470;-96
2021/07/26 21:56:05;;;;;;;1999.90;106.10;;;15.10;99.90;;;;;;4923248;29;20811;-96
2021/07/26 21:58:34;;;;;;;0.10;0.10;;;15.00;99.90;;;;;;4941137;29;20434;-96
2021/07/26 22:01:02;;;;;;;0.10;0.10;;;15.00;99.90;;;;;;4910449;29;20407;-96
2021/07/26 22:03:29;;;;;;;0.20;0.20;;;15.10;99.90;;;;;;4921274;29;20424;-96
2021/07/26 22:05:56;;;;;;;0.10;0.10;;;15.20;99.90;;;;;;4920105;29;20455;-96
2021/07/26 22:08:23;;;;;;;0.25;0.17;;;15.30;99.90;;;;;;4921908;29;20434;-95
2021/07/26 22:10:53;;;;;;;0.10;0.10;;;15.40;99.90;;;;;;4923133;29;20432;-96
2021/07/26 22:13:21;;;;;;;0.20;0.20;;;15.50;99.90;;;;;;4926121;29;20431;-96
2021/07/26 22:15:49;;;;;;;0.40;0.40;;;15.50;99.90;;;;;;4941764;29;20423;-96
2021/07/26 22:18:20;;;;;;;0.90;0.25;;;15.30;99.90;;;;;;4936810;29;20424;-93
2021/07/26 22:21:06;;;;;;;0.15;0.15;;;15.30;99.90;;;;;;4945020;29;20782;-96
2021/07/26 22:24:06;;;;;;;0.50;0.50;;;15.20;99.90;;;;;;4950129;29;20423;-96
2021/07/26 22:26:33;;;;;;;0.10;0.10;;;15.10;99.90;;;;;;4934517;29;20446;-95
2021/07/26 22:29:02;;;;;;;1.02;0.65;;;15.00;99.90;;;;;;4946323;29;20435;-96
2021/07/26 22:31:41;;;;;;;1.75;0.40;;;14.90;99.90;;;;;;4936857;29;20423;-95
2021/07/26 22:34:30;;;;;;;0.10;0.10;;;14.90;99.90;;;;;;4935508;29;20435;-95
2021/07/26 22:40:27;;;;;;;0.20;0.20;;;14.80;99.90;;;;;;5016546;23;20481;-96
2021/07/26 22:43:09;;;;;;;0.20;0.20;;;14.80;99.90;;;;;;4935490;29;20438;-94
2021/07/26 22:45:38;;;;;;;0.10;0.10;;;14.90;99.90;;;;;;4932726;29;20506;-96
2021/07/26 22:48:14;;;;;;;0.40;0.30;;;14.90;99.90;;;;;;4935143;29;20435;-93
2021/07/26 22:50:41;;;;;;;0.10;0.10;;;14.90;99.90;;;;;;4935692;29;20799;-96
2021/07/26 22:53:53;;;;;;;0.30;0.30;;;14.90;99.90;;;;;;4935742;29;20418;-96
2021/07/26 22:57:01;;;;;;;0.30;0.30;;;14.80;99.90;;;;;;4884231;29;20482;-96
2021/07/26 23:00:14;;;;;;;0.30;0.30;;;14.80;99.90;;;;;;4824610;29;20436;-96
2021/07/26 23:04:10;;;;;;;0.10;0.10;;;14.70;99.90;;;;;;4930054;23;20471;-96
2021/07/26 23:08:13;;;;;;;0.15;0.15;;;14.70;99.90;;;;;;4896330;23;20451;-96
2021/07/26 23:19:19;;;;;;;0.40;0.40;;;14.50;99.90;;;;;;4949816;28;20518;-95
2021/07/26 23:26:22;;;;;;;0.15;0.15;;;14.40;99.90;;;;;;4876283;29;20434;-96
2021/07/26 23:29:48;;;;;;;0.40;0.40;;;14.40;99.90;;;;;;5040016;23;20459;-96
